createdAt,value
2017-09-05T00:00:05.512Z,86.11
2017-09-05T00:02:33.280Z,86.42
2017-09-05T00:05:01.002Z,85.69
2017-09-05T00:07:30.638Z,85.43
2017-09-05T00:10:04.838Z,85.18
2017-09-05T00:12:37.967Z,84.91
2017-09-05T00:15:07.336Z,84.94
2017-09-05T00:20:38.333Z,85.06
2017-09-05T00:23:09.895Z,85.07
2017-09-05T00:25:37.720Z,85.04
2017-09-05T00:28:06.181Z,85.62
2017-09-05T00:30:33.900Z,85.33
2017-09-05T00:33:01.699Z,85.16
2017-09-05T00:35:29.416Z,85.13
2017-09-05T00:37:57.221Z,84.22
2017-09-05T00:40:24.931Z,84.68
2017-09-05T00:42:52.739Z,85.12
2017-09-05T00:45:20.586Z,84.59
2017-09-05T00:47:48.326Z,85.26
2017-09-05T00:50:16.072Z,85.55
2017-09-05T00:52:44.334Z,85.83
2017-09-05T00:55:12.103Z,85.67
2017-09-05T00:57:39.894Z,85.49
2017-09-05T01:00:07.592Z,85.31
2017-09-05T01:02:35.432Z,85.63
2017-09-05T01:05:03.149Z,85.72
2017-09-05T01:07:30.847Z,85.25
2017-09-05T01:09:58.570Z,85.20
2017-09-05T01:12:26.280Z,85.03
2017-09-05T01:14:54.119Z,84.81
2017-09-05T01:17:21.832Z,85.15
2017-09-05T01:19:49.621Z,84.68
2017-09-05T01:22:17.426Z,85.39
2017-09-05T01:24:45.128Z,85.30
2017-09-05T01:27:12.823Z,85.68
2017-09-05T01:29:40.574Z,86.15
2017-09-05T01:32:08.246Z,86.49
2017-09-05T01:34:36.793Z,86.87
2017-09-05T01:37:04.547Z,86.02
2017-09-05T01:39:32.365Z,86.25
2017-09-05T01:42:01.150Z,86.16
2017-09-05T01:44:28.850Z,86.37
2017-09-05T01:46:56.587Z,86.88
2017-09-05T01:49:24.275Z,86.53
2017-09-05T01:51:51.935Z,86.67
2017-09-05T01:54:19.651Z,87.54
2017-09-05T01:56:47.346Z,87.40
2017-09-05T01:59:15.066Z,86.66
2017-09-05T02:01:42.775Z,86.28
2017-09-05T02:04:10.540Z,85.71
2017-09-05T02:06:38.412Z,86.30
2017-09-05T02:09:06.086Z,85.43
2017-09-05T02:11:33.849Z,84.73
2017-09-05T02:14:01.523Z,84.87
2017-09-05T02:16:29.256Z,85.63
2017-09-05T02:18:56.977Z,85.90
2017-09-05T02:21:24.725Z,85.36
2017-09-05T02:23:52.511Z,85.75
2017-09-05T02:26:20.210Z,86.53
2017-09-05T02:28:47.979Z,86.08
2017-09-05T02:31:15.669Z,85.88
2017-09-05T02:33:43.447Z,85.79
2017-09-05T02:36:11.170Z,85.51
2017-09-05T02:38:38.854Z,85.44
2017-09-05T02:41:06.573Z,86.08
2017-09-05T02:43:34.277Z,85.90
2017-09-05T02:46:01.990Z,85.89
2017-09-05T02:48:29.703Z,85.77
2017-09-05T02:50:57.395Z,85.80
2017-09-05T02:53:25.181Z,85.82
2017-09-05T02:55:53.855Z,85.97
2017-09-05T02:58:21.665Z,85.79
2017-09-05T03:00:49.616Z,85.93
2017-09-05T03:03:17.352Z,86.48
2017-09-05T03:05:45.099Z,86.18
2017-09-05T03:08:12.911Z,85.94
2017-09-05T03:10:40.756Z,85.38
2017-09-05T03:13:08.427Z,86.03
2017-09-05T03:15:36.127Z,85.95
2017-09-05T03:18:03.909Z,85.89
2017-09-05T03:20:31.647Z,86.55
2017-09-05T03:22:59.397Z,86.31
2017-09-05T03:25:27.131Z,85.72
2017-09-05T03:27:54.903Z,85.79
2017-09-05T03:30:22.691Z,85.09
2017-09-05T03:32:50.385Z,85.29
2017-09-05T03:35:18.127Z,85.62
2017-09-05T03:37:45.833Z,85.74
2017-09-05T03:40:13.623Z,86.11
2017-09-05T03:42:41.288Z,86.15
2017-09-05T03:45:08.986Z,86.51
2017-09-05T03:47:36.753Z,86.87
2017-09-05T03:50:04.427Z,86.01
2017-09-05T03:52:32.108Z,85.86
2017-09-05T03:54:59.840Z,86.95
2017-09-05T03:57:28.676Z,86.62
2017-09-05T03:59:56.349Z,86.49
2017-09-05T04:02:24.080Z,87.31
2017-09-05T04:04:51.807Z,86.76
2017-09-05T04:07:19.506Z,86.05
2017-09-05T04:09:47.267Z,85.21
2017-09-05T04:12:14.951Z,84.80
2017-09-05T04:14:42.679Z,85.29
2017-09-05T04:17:10.418Z,86.18
2017-09-05T04:19:38.176Z,86.09
2017-09-05T04:22:05.847Z,85.74
2017-09-05T04:24:33.557Z,85.46
2017-09-05T04:27:02.161Z,85.58
2017-09-05T04:29:29.996Z,86.33
2017-09-05T04:31:57.662Z,86.33
2017-09-05T04:34:27.811Z,86.31
2017-09-05T04:36:55.516Z,87.02
2017-09-05T04:39:23.236Z,87.32
2017-09-05T04:41:50.962Z,87.12
2017-09-05T04:44:18.643Z,87.32
2017-09-05T04:46:46.411Z,87.06
2017-09-05T04:49:14.130Z,87.17
2017-09-05T04:51:41.828Z,87.08
2017-09-05T04:54:09.547Z,87.32
2017-09-05T04:56:37.274Z,87.28
2017-09-05T04:59:05.018Z,87.83
2017-09-05T05:01:32.788Z,88.20
2017-09-05T05:04:00.495Z,87.67
2017-09-05T05:06:28.338Z,88.24
2017-09-05T05:08:56.059Z,88.07
2017-09-05T05:11:23.787Z,88.29
2017-09-05T05:13:51.498Z,88.68
2017-09-05T05:16:19.175Z,88.72
2017-09-05T05:18:46.960Z,88.50
2017-09-05T05:21:14.650Z,88.20
2017-09-05T05:23:42.328Z,87.18
2017-09-05T05:26:10.086Z,86.53
2017-09-05T05:28:37.853Z,86.32
2017-09-05T05:31:05.543Z,86.38
2017-09-05T05:33:33.305Z,86.09
2017-09-05T05:36:01.116Z,86.78
2017-09-05T05:38:28.875Z,86.91
2017-09-05T05:40:56.620Z,86.28
2017-09-05T05:43:24.419Z,85.74
2017-09-05T05:45:52.157Z,85.58
2017-09-05T05:48:19.837Z,84.56
2017-09-05T05:50:47.606Z,85.09
2017-09-05T05:53:15.279Z,86.15
2017-09-05T05:55:43.057Z,86.18
2017-09-05T05:58:10.880Z,85.51
2017-09-05T06:00:38.631Z,85.35
2017-09-05T06:03:06.317Z,85.49
2017-09-05T06:05:34.093Z,85.39
2017-09-05T06:08:01.807Z,85.07
2017-09-05T06:10:29.586Z,84.23
2017-09-05T06:12:57.300Z,85.20
2017-09-05T06:15:25.112Z,85.16
2017-09-05T06:17:52.918Z,86.86
2017-09-05T06:20:20.712Z,85.12
2017-09-05T06:22:48.426Z,86.16
2017-09-05T06:25:16.222Z,84.90
2017-09-05T06:27:43.934Z,82.35
2017-09-05T06:30:11.861Z,82.45
2017-09-05T06:32:39.628Z,81.84
2017-09-05T06:35:07.345Z,81.04
2017-09-05T06:37:35.108Z,80.72
2017-09-05T06:40:02.871Z,80.07
2017-09-05T06:42:30.625Z,79.61
2017-09-05T06:44:58.856Z,79.39
2017-09-05T06:47:26.613Z,80.45
2017-09-05T06:49:54.312Z,80.12
2017-09-05T06:52:22.054Z,80.27
2017-09-05T06:54:49.859Z,80.85
2017-09-05T06:57:17.574Z,78.81
2017-09-05T06:59:45.342Z,78.27
2017-09-05T07:02:13.077Z,77.92
2017-09-05T07:04:40.788Z,77.76
2017-09-05T07:07:08.623Z,78.28
2017-09-05T07:09:36.349Z,75.65
2017-09-05T07:12:04.101Z,75.96
2017-09-05T07:14:31.804Z,76.34
2017-09-05T07:16:59.492Z,75.54
2017-09-05T07:19:27.256Z,74.54
2017-09-05T07:21:54.971Z,75.29
2017-09-05T07:24:22.790Z,74.88
2017-09-05T07:26:50.506Z,74.48
2017-09-05T07:29:18.218Z,73.57
2017-09-05T07:31:45.972Z,73.44
2017-09-05T07:34:13.738Z,72.95
2017-09-05T07:36:41.442Z,72.76
2017-09-05T07:39:09.241Z,73.55
2017-09-05T07:41:36.947Z,70.47
2017-09-05T07:44:04.646Z,72.17
2017-09-05T07:46:32.417Z,69.71
2017-09-05T07:49:00.206Z,68.31
2017-09-05T07:51:27.980Z,68.91
2017-09-05T07:53:55.777Z,69.28
2017-09-05T07:56:23.862Z,69.21
2017-09-05T07:58:51.635Z,68.57
2017-09-05T08:01:19.352Z,66.79
2017-09-05T08:03:47.066Z,67.64
2017-09-05T08:06:14.828Z,68.79
2017-09-05T08:08:42.640Z,68.21
2017-09-05T08:11:10.363Z,66.50
2017-09-05T08:13:38.079Z,65.02
2017-09-05T08:16:05.892Z,63.18
2017-09-05T08:18:33.594Z,63.10
2017-09-05T08:23:28.391Z,61.79
2017-09-05T08:25:56.132Z,62.66
2017-09-05T08:28:23.890Z,61.27
2017-09-05T08:30:51.591Z,63.48
2017-09-05T08:33:19.305Z,62.55
2017-09-05T08:35:47.079Z,62.78
2017-09-05T08:38:14.828Z,61.84
2017-09-05T08:40:42.601Z,61.52
2017-09-05T08:43:10.305Z,61.26
2017-09-05T08:45:38.047Z,60.29
2017-09-05T08:48:05.829Z,59.45
2017-09-05T08:50:33.544Z,59.01
2017-09-05T08:53:01.249Z,59.15
2017-09-05T08:55:29.016Z,59.19
2017-09-05T08:57:56.743Z,58.96
2017-09-05T09:00:24.451Z,56.62
2017-09-05T09:02:52.253Z,58.23
2017-09-05T09:05:20.007Z,57.46
2017-09-05T09:07:47.982Z,57.97
2017-09-05T09:10:15.707Z,55.69
2017-09-05T09:12:43.425Z,53.79
2017-09-05T09:15:11.191Z,54.37
2017-09-05T09:17:40.090Z,56.79
2017-09-05T09:20:08.494Z,56.32
2017-09-05T09:22:36.199Z,58.79
2017-09-05T09:25:03.988Z,58.00
2017-09-05T09:27:31.740Z,58.83
2017-09-05T09:29:59.592Z,57.26
2017-09-05T09:32:27.361Z,56.30
2017-09-05T09:34:55.578Z,57.02
2017-09-05T09:37:23.299Z,56.10
2017-09-05T09:39:50.997Z,54.71
2017-09-05T09:42:18.750Z,54.27
2017-09-05T09:44:47.092Z,54.93
2017-09-05T09:47:14.807Z,54.23
2017-09-05T09:49:42.621Z,54.43
2017-09-05T09:52:11.527Z,51.59
2017-09-05T09:54:39.324Z,52.70
2017-09-05T09:57:07.134Z,52.73
2017-09-05T09:59:34.965Z,54.47
2017-09-05T10:02:02.714Z,55.19
2017-09-05T10:04:30.414Z,53.83
2017-09-05T10:06:59.975Z,54.79
2017-09-05T10:09:27.735Z,52.73
2017-09-05T10:11:55.699Z,53.91
2017-09-05T10:14:23.461Z,53.17
2017-09-05T10:16:51.212Z,52.07
2017-09-05T10:19:18.982Z,50.88
2017-09-05T10:21:47.766Z,50.49
2017-09-05T10:24:15.534Z,53.40
2017-09-05T10:26:43.251Z,54.31
2017-09-05T10:29:11.018Z,48.47
2017-09-05T10:31:38.926Z,52.45
2017-09-05T10:34:06.679Z,53.43
2017-09-05T10:36:34.521Z,51.25
2017-09-05T10:39:03.042Z,50.25
2017-09-05T10:41:30.811Z,50.19
2017-09-05T10:43:59.767Z,50.48
2017-09-05T10:46:27.566Z,50.47
2017-09-05T10:48:55.354Z,52.68
2017-09-05T10:51:23.092Z,51.36
2017-09-05T10:53:50.856Z,51.71
2017-09-05T10:56:18.653Z,45.75
2017-09-05T10:58:47.478Z,48.30
2017-09-05T11:01:15.221Z,47.55
2017-09-05T11:03:42.944Z,48.91
2017-09-05T11:06:10.668Z,49.45
2017-09-05T11:08:38.461Z,46.93
2017-09-05T11:11:06.216Z,46.42
2017-09-05T11:13:33.983Z,47.96
2017-09-05T11:16:01.688Z,49.87
2017-09-05T11:18:29.389Z,50.23
2017-09-05T11:20:57.190Z,51.13
2017-09-05T11:23:25.410Z,52.73
2017-09-05T11:25:54.126Z,52.18
2017-09-05T11:28:21.854Z,52.60
2017-09-05T11:30:50.326Z,54.22
2017-09-05T11:33:18.188Z,55.94
2017-09-05T11:35:45.916Z,58.09
2017-09-05T11:38:13.727Z,56.16
2017-09-05T11:40:41.465Z,55.24
2017-09-05T11:43:09.238Z,54.65
2017-09-05T11:45:36.993Z,52.74
2017-09-05T11:48:04.731Z,53.37
2017-09-05T11:50:32.582Z,53.98
2017-09-05T11:53:00.293Z,54.88
2017-09-05T11:55:28.067Z,52.93
2017-09-05T11:57:55.784Z,54.81
2017-09-05T12:00:23.555Z,51.10
2017-09-05T12:02:51.352Z,51.43
2017-09-05T12:05:19.606Z,47.17
2017-09-05T12:07:47.709Z,48.43
2017-09-05T12:10:15.410Z,48.81
2017-09-05T12:12:43.146Z,47.85
2017-09-05T12:15:10.909Z,49.16
2017-09-05T12:17:38.642Z,49.89
2017-09-05T12:20:06.412Z,48.98
2017-09-05T12:22:34.765Z,51.45
2017-09-05T12:25:03.305Z,49.97
2017-09-05T12:27:31.047Z,49.48
2017-09-05T12:29:58.921Z,47.81
2017-09-05T12:32:27.605Z,48.56
2017-09-05T12:34:56.535Z,49.25
2017-09-05T12:37:25.189Z,50.00
2017-09-05T12:39:53.042Z,50.29
2017-09-05T12:42:20.910Z,51.98
2017-09-05T12:44:48.709Z,51.16
2017-09-05T12:47:16.598Z,53.48
2017-09-05T12:49:45.566Z,51.72
2017-09-05T12:52:13.315Z,52.85
2017-09-05T12:54:41.076Z,51.11
2017-09-05T12:57:08.877Z,51.63
2017-09-05T12:59:36.676Z,50.92
2017-09-05T13:02:04.427Z,50.61
2017-09-05T13:04:32.146Z,51.30
2017-09-05T13:07:00.199Z,50.38
2017-09-05T13:09:27.960Z,49.16
2017-09-05T13:11:55.759Z,48.69
2017-09-05T13:14:23.537Z,49.96
2017-09-05T13:16:51.238Z,51.23
2017-09-05T13:19:18.982Z,52.54
2017-09-05T13:21:47.198Z,52.12
2017-09-05T13:24:15.063Z,53.27
2017-09-05T13:26:42.859Z,53.07
2017-09-05T13:29:11.528Z,52.93
2017-09-05T13:31:39.571Z,53.22
2017-09-05T13:34:07.385Z,52.82
2017-09-05T13:36:35.208Z,52.97
2017-09-05T13:39:02.972Z,52.83
2017-09-05T13:41:31.755Z,52.46
2017-09-05T13:43:59.520Z,53.26
2017-09-05T13:46:27.301Z,54.25
2017-09-05T13:48:55.054Z,52.30
2017-09-05T13:51:22.762Z,53.65
2017-09-05T13:53:50.552Z,54.24
2017-09-05T13:56:18.361Z,53.90
2017-09-05T13:58:46.095Z,54.48
2017-09-05T14:01:14.146Z,54.65
2017-09-05T14:03:41.992Z,54.69
2017-09-05T14:06:09.745Z,54.61
2017-09-05T14:08:37.529Z,54.23
2017-09-05T14:11:05.299Z,54.29
2017-09-05T14:13:33.110Z,54.98
2017-09-05T14:16:00.917Z,54.65
2017-09-05T14:18:28.709Z,51.84
2017-09-05T14:20:56.975Z,55.01
2017-09-05T14:23:24.798Z,55.17
2017-09-05T14:25:52.621Z,55.38
2017-09-05T14:28:20.340Z,55.06
2017-09-05T14:30:48.425Z,55.00
2017-09-05T14:33:16.380Z,56.15
2017-09-05T14:35:44.152Z,55.95
2017-09-05T14:38:11.936Z,55.74
2017-09-05T14:40:39.745Z,55.50
2017-09-05T14:43:07.695Z,56.14
2017-09-05T14:45:35.911Z,55.97
2017-09-05T14:48:03.704Z,56.03
2017-09-05T14:50:33.364Z,55.58
2017-09-05T14:53:01.163Z,55.25
2017-09-05T14:55:28.851Z,55.70
2017-09-05T14:57:56.651Z,54.79
2017-09-05T15:00:24.375Z,56.30
2017-09-05T15:02:52.134Z,55.34
2017-09-05T15:05:19.895Z,55.49
2017-09-05T15:07:47.606Z,56.00
2017-09-05T15:10:15.324Z,55.90
2017-09-05T15:12:43.080Z,56.69
2017-09-05T15:15:10.863Z,56.87
2017-09-05T15:17:38.632Z,58.45
2017-09-05T15:20:06.424Z,58.42
2017-09-05T15:22:34.277Z,57.12
2017-09-05T15:25:02.000Z,58.60
2017-09-05T15:27:30.883Z,57.45
2017-09-05T15:29:58.691Z,60.25
2017-09-05T15:32:26.509Z,58.45
2017-09-05T15:34:54.246Z,58.90
2017-09-05T15:37:21.947Z,59.09
2017-09-05T15:39:49.967Z,58.55
2017-09-05T15:42:17.679Z,58.79
2017-09-05T15:44:45.443Z,59.90
2017-09-05T15:47:13.138Z,62.23
2017-09-05T15:49:40.931Z,61.77
2017-09-05T15:52:08.791Z,61.79
2017-09-05T15:54:36.572Z,65.07
2017-09-05T15:57:04.356Z,65.98
2017-09-05T15:59:32.331Z,64.34
2017-09-05T16:02:00.129Z,66.74
2017-09-05T16:04:27.899Z,63.18
2017-09-05T16:06:55.780Z,63.79
2017-09-05T16:09:23.576Z,64.51
2017-09-05T16:11:51.331Z,66.18
2017-09-05T16:14:19.058Z,68.02
2017-09-05T16:16:46.891Z,67.23
2017-09-05T16:19:14.608Z,66.34
2017-09-05T16:21:42.328Z,68.21
2017-09-05T16:24:10.154Z,67.51
2017-09-05T16:26:37.921Z,64.94
2017-09-05T16:29:05.660Z,67.50
2017-09-05T16:31:33.508Z,68.25
2017-09-05T16:34:01.249Z,67.65
2017-09-05T16:36:28.996Z,68.00
2017-09-05T16:38:56.837Z,68.33
2017-09-05T16:41:24.539Z,69.69
2017-09-05T16:43:52.467Z,69.77
2017-09-05T16:46:20.274Z,69.71
2017-09-05T16:48:47.988Z,70.57
2017-09-05T16:51:15.782Z,72.38
2017-09-05T16:53:43.525Z,71.78
2017-09-05T16:56:11.229Z,71.47
2017-09-05T16:58:39.034Z,71.03
2017-09-05T17:01:06.743Z,72.62
2017-09-05T17:03:34.552Z,72.19
2017-09-05T17:06:02.372Z,72.06
2017-09-05T17:08:30.109Z,73.10
2017-09-05T17:10:57.833Z,73.23
2017-09-05T17:13:26.030Z,73.88
2017-09-05T17:15:53.729Z,74.52
2017-09-05T17:18:21.448Z,73.76
2017-09-05T17:20:49.250Z,73.78
2017-09-05T17:23:16.940Z,74.12
2017-09-05T17:25:44.734Z,74.93
2017-09-05T17:28:12.505Z,75.27
2017-09-05T17:30:40.353Z,75.05
2017-09-05T17:33:08.211Z,74.83
2017-09-05T17:35:35.961Z,75.25
2017-09-05T17:38:04.749Z,74.50
2017-09-05T17:40:33.333Z,74.40
2017-09-05T17:43:01.111Z,74.22
2017-09-05T17:45:29.532Z,74.93
2017-09-05T17:47:57.359Z,74.55
2017-09-05T17:50:25.069Z,75.91
2017-09-05T17:52:52.893Z,75.60
2017-09-05T17:55:20.600Z,75.12
2017-09-05T17:57:48.416Z,75.76
2017-09-05T18:00:16.210Z,76.23
2017-09-05T18:02:43.960Z,76.07
2017-09-05T18:05:11.776Z,75.56
2017-09-05T18:07:43.353Z,76.72
2017-09-05T18:10:11.164Z,73.90
2017-09-05T18:12:38.999Z,73.91
2017-09-05T18:15:06.798Z,74.65
2017-09-05T18:17:34.632Z,75.89
2017-09-05T18:20:02.452Z,75.54
2017-09-05T18:22:30.177Z,76.38
2017-09-05T18:24:57.989Z,76.64
2017-09-05T18:27:25.792Z,75.23
2017-09-05T18:29:54.693Z,74.29
2017-09-05T18:32:24.859Z,74.54
2017-09-05T18:34:52.615Z,75.63
2017-09-05T18:37:20.463Z,74.95
2017-09-05T18:39:49.366Z,76.02
2017-09-05T18:42:17.192Z,77.01
2017-09-05T18:44:45.175Z,76.74
2017-09-05T18:47:13.023Z,77.19
2017-09-05T18:49:40.950Z,77.06
2017-09-05T18:52:08.991Z,77.09
2017-09-05T18:54:36.966Z,78.10
2017-09-05T18:57:04.926Z,77.51
2017-09-05T18:59:32.761Z,77.06
2017-09-05T19:02:01.195Z,77.06
2017-09-05T19:04:29.118Z,77.35
2017-09-05T19:06:56.914Z,77.54
2017-09-05T19:09:24.786Z,78.94
2017-09-05T19:11:53.651Z,78.72
2017-09-05T19:14:21.805Z,78.50
2017-09-05T19:16:49.655Z,79.35
2017-09-05T19:19:17.525Z,79.41
2017-09-05T19:21:45.472Z,78.80
2017-09-05T19:24:13.817Z,79.36
2017-09-05T19:26:41.722Z,79.90
2017-09-05T19:29:09.708Z,79.90
2017-09-05T19:31:37.510Z,80.50
2017-09-05T19:34:05.429Z,80.50
2017-09-05T19:36:33.212Z,80.79
2017-09-05T19:39:01.127Z,80.10
2017-09-05T19:41:29.017Z,79.88
2017-09-05T19:43:56.809Z,79.83
2017-09-05T19:46:24.723Z,80.65
2017-09-05T19:48:52.537Z,79.99
2017-09-05T19:51:20.356Z,81.10
2017-09-05T19:53:48.210Z,80.73
2017-09-05T19:56:15.948Z,80.23
2017-09-05T19:58:43.808Z,80.46
2017-09-05T20:01:11.526Z,81.17
2017-09-05T20:03:39.310Z,81.11
2017-09-05T20:06:07.094Z,80.87
2017-09-05T20:08:34.880Z,80.86
2017-09-05T20:11:02.984Z,81.42
2017-09-05T20:13:31.402Z,81.15
2017-09-05T20:15:59.162Z,80.77
2017-09-05T20:18:26.970Z,81.81
2017-09-05T20:20:54.751Z,81.11
2017-09-05T20:23:22.454Z,80.77
2017-09-05T20:25:50.203Z,82.08
2017-09-05T20:28:17.995Z,83.03
2017-09-05T20:30:45.743Z,82.42
2017-09-05T20:33:13.550Z,82.62
2017-09-05T20:35:41.341Z,82.63
2017-09-05T20:38:09.201Z,83.14
2017-09-05T20:40:37.697Z,83.35
2017-09-05T20:43:05.521Z,83.14
2017-09-05T20:45:33.315Z,82.90
2017-09-05T20:48:01.154Z,82.87
2017-09-05T20:50:28.947Z,83.15
2017-09-05T20:52:57.651Z,83.21
2017-09-05T20:55:25.411Z,82.76
2017-09-05T20:57:54.379Z,83.53
2017-09-05T21:00:22.625Z,82.75
2017-09-05T21:02:50.418Z,82.50
2017-09-05T21:05:18.201Z,83.12
2017-09-05T21:07:46.516Z,82.61
2017-09-05T21:10:14.216Z,82.54
2017-09-05T21:12:42.206Z,83.04
2017-09-05T21:15:10.240Z,83.53
2017-09-05T21:17:38.069Z,82.57
2017-09-05T21:20:05.902Z,82.50
2017-09-05T21:22:33.724Z,83.67
2017-09-05T21:25:02.471Z,83.42
2017-09-05T21:27:30.240Z,83.47
2017-09-05T21:29:57.977Z,82.97
2017-09-05T21:32:25.731Z,82.50
2017-09-05T21:34:53.579Z,83.58
2017-09-05T21:37:21.366Z,84.21
2017-09-05T21:39:49.123Z,83.47
2017-09-05T21:42:16.951Z,83.34
2017-09-05T21:44:44.735Z,83.04
2017-09-05T21:47:12.480Z,82.82
2017-09-05T21:49:41.163Z,83.44
2017-09-05T21:52:08.988Z,84.70
2017-09-05T21:54:36.782Z,84.38
2017-09-05T21:57:04.539Z,83.75
2017-09-05T21:59:32.349Z,83.72
2017-09-05T22:02:00.860Z,83.88
2017-09-05T22:04:29.487Z,85.04
2017-09-05T22:06:57.195Z,83.82
2017-09-05T22:09:25.036Z,83.97
2017-09-05T22:11:52.808Z,84.17
2017-09-05T22:14:25.982Z,84.55
2017-09-05T22:16:53.728Z,84.85
2017-09-05T22:19:27.387Z,84.72
2017-09-05T22:21:55.164Z,84.71
2017-09-05T22:24:28.789Z,84.59
2017-09-05T22:27:02.868Z,84.21
2017-09-05T22:29:30.900Z,84.25
2017-09-05T22:31:58.711Z,83.91
2017-09-05T22:34:26.459Z,83.86
2017-09-05T22:36:54.169Z,84.32
2017-09-05T22:39:21.918Z,84.55
2017-09-05T22:41:49.621Z,84.59
2017-09-05T22:44:17.411Z,84.90
2017-09-05T22:46:45.136Z,86.06
2017-09-05T22:49:13.003Z,85.83
2017-09-05T22:51:40.793Z,85.09
2017-09-05T22:54:08.504Z,84.85
2017-09-05T22:56:36.284Z,85.45
2017-09-05T22:59:04.083Z,86.08
2017-09-05T23:01:31.874Z,85.46
2017-09-05T23:03:59.589Z,85.98
2017-09-05T23:06:27.277Z,85.90
2017-09-05T23:08:55.048Z,85.54
2017-09-05T23:11:22.881Z,84.96
2017-09-05T23:13:50.920Z,85.15
2017-09-05T23:16:18.625Z,84.97
2017-09-05T23:18:46.325Z,85.09
2017-09-05T23:21:14.285Z,85.16
2017-09-05T23:23:41.990Z,86.17
2017-09-05T23:26:09.776Z,86.19
2017-09-05T23:28:37.500Z,85.35
2017-09-05T23:31:05.369Z,85.74
2017-09-05T23:33:34.052Z,86.10
2017-09-05T23:36:01.800Z,85.84
2017-09-05T23:38:29.897Z,85.70
2017-09-05T23:40:57.626Z,86.29
2017-09-05T23:43:25.412Z,87.15
2017-09-05T23:45:53.137Z,87.17
2017-09-05T23:48:20.835Z,86.33
2017-09-05T23:50:48.619Z,86.77
2017-09-05T23:53:16.361Z,87.24
2017-09-05T23:55:44.110Z,86.58
2017-09-05T23:58:12.360Z,86.41
